UTA7775 ULLI-USRO
Flight info
| Callsign | UTA7775 |
|---|---|
| Flight time | N/A |
| Altitude | 37000 |
| Route | KERIS1B KERIS P989 ATBAR G486 ATLON ATLON1J |
| Aircraft | B738/M-SDE2E3FGHIRWXY/LB1 |
Departure
| Time | N/A |
|---|---|
| Airport | Pulkovo Airport (ULLI) |
Arrival
| Time | 2026-04-21 07:08 |
|---|---|
| Airport | Noyabrsk Airport (USRO) |
| Time | Latitude | Longitude | Altitude | Speed | Heading |
|---|---|---|---|---|---|
| 2026-04-21 05:57 | 62.30028 | 58.83919 | 39180 ft | 470 kts | 83° |
| 2026-04-21 05:58 | 62.30729 | 58.97988 | 39189 ft | 476 kts | 83° |
| 2026-04-21 05:58 | 62.31376 | 59.12263 | 39188 ft | 482 kts | 83° |
| 2026-04-21 05:59 | 62.32058 | 59.26649 | 39184 ft | 485 kts | 83° |
| 2026-04-21 06:00 | 62.32988 | 59.48179 | 39193 ft | 479 kts | 84° |
| 2026-04-21 06:00 | 62.33591 | 59.62436 | 39195 ft | 478 kts | 83° |
| 2026-04-21 06:01 | 62.34256 | 59.76617 | 39209 ft | 476 kts | 83° |
| 2026-04-21 06:01 | 62.34921 | 59.90794 | 39217 ft | 476 kts | 83° |
| 2026-04-21 06:02 | 62.35558 | 60.04889 | 39214 ft | 476 kts | 84° |
| 2026-04-21 06:02 | 62.36176 | 60.19090 | 39221 ft | 476 kts | 84° |
| 2026-04-21 06:03 | 62.36779 | 60.33312 | 39230 ft | 477 kts | 84° |
| 2026-04-21 06:03 | 62.37368 | 60.47554 | 39225 ft | 478 kts | 84° |
| 2026-04-21 06:04 | 62.37945 | 60.61837 | 39223 ft | 478 kts | 84° |
| 2026-04-21 06:04 | 62.38507 | 60.76130 | 39226 ft | 479 kts | 84° |
| 2026-04-21 06:05 | 62.39056 | 60.90462 | 39228 ft | 479 kts | 84° |
| 2026-04-21 06:05 | 62.39589 | 61.04794 | 39247 ft | 480 kts | 84° |
| 2026-04-21 06:06 | 62.40110 | 61.19156 | 39237 ft | 481 kts | 84° |
| 2026-04-21 06:06 | 62.40615 | 61.33528 | 39232 ft | 481 kts | 84° |
| 2026-04-21 06:07 | 62.41107 | 61.47939 | 39235 ft | 481 kts | 84° |
| 2026-04-21 06:07 | 62.41583 | 61.62339 | 39234 ft | 481 kts | 85° |
| 2026-04-21 06:08 | 62.42044 | 61.76730 | 39234 ft | 480 kts | 85° |
| 2026-04-21 06:08 | 62.42489 | 61.91096 | 39250 ft | 480 kts | 85° |
| 2026-04-21 06:09 | 62.42918 | 62.05381 | 39252 ft | 481 kts | 85° |
| 2026-04-21 06:09 | 62.43336 | 62.19831 | 39249 ft | 482 kts | 85° |
| 2026-04-21 06:10 | 62.43739 | 62.34301 | 39249 ft | 483 kts | 85° |
| 2026-04-21 06:10 | 62.44128 | 62.48781 | 39253 ft | 483 kts | 85° |
| 2026-04-21 06:11 | 62.44502 | 62.63299 | 39265 ft | 484 kts | 85° |
| 2026-04-21 06:11 | 62.44862 | 62.77815 | 39255 ft | 484 kts | 85° |
| 2026-04-21 06:12 | 62.45204 | 62.92254 | 39261 ft | 484 kts | 85° |
| 2026-04-21 06:12 | 62.45533 | 63.06768 | 39261 ft | 484 kts | 85° |
| 2026-04-21 06:13 | 62.45846 | 63.21272 | 39264 ft | 483 kts | 86° |
| 2026-04-21 06:13 | 62.46145 | 63.35787 | 39271 ft | 483 kts | 86° |
| 2026-04-21 06:14 | 62.46428 | 63.50273 | 39277 ft | 483 kts | 86° |
| 2026-04-21 06:14 | 62.46696 | 63.64806 | 39278 ft | 483 kts | 86° |
| 2026-04-21 06:15 | 62.46950 | 63.79311 | 39281 ft | 483 kts | 86° |
| 2026-04-21 06:15 | 62.47188 | 63.93833 | 39289 ft | 483 kts | 86° |
| 2026-04-21 06:16 | 62.47411 | 64.08352 | 39285 ft | 484 kts | 86° |
| 2026-04-21 06:16 | 62.47618 | 64.22827 | 39315 ft | 484 kts | 86° |
| 2026-04-21 06:17 | 62.47811 | 64.37386 | 39301 ft | 485 kts | 86° |
| 2026-04-21 06:17 | 62.47989 | 64.51996 | 39295 ft | 486 kts | 86° |
| 2026-04-21 06:18 | 62.48151 | 64.66597 | 39297 ft | 486 kts | 87° |
| 2026-04-21 06:18 | 62.48299 | 64.81234 | 39300 ft | 486 kts | 87° |
| 2026-04-21 06:19 | 62.48422 | 64.95859 | 39296 ft | 487 kts | 88° |
| 2026-04-21 06:19 | 62.48276 | 65.10505 | 39310 ft | 487 kts | 90° |
| 2026-04-21 06:20 | 62.48024 | 65.25135 | 39298 ft | 487 kts | 90° |
| 2026-04-21 06:20 | 62.47790 | 65.39773 | 39299 ft | 487 kts | 90° |
| 2026-04-21 06:21 | 62.47564 | 65.54414 | 39302 ft | 487 kts | 90° |
| 2026-04-21 06:21 | 62.47326 | 65.69061 | 39300 ft | 487 kts | 90° |
| 2026-04-21 06:22 | 62.47069 | 65.83708 | 39305 ft | 487 kts | 90° |
| 2026-04-21 06:22 | 62.46799 | 65.98353 | 39300 ft | 488 kts | 90° |
| 2026-04-21 06:23 | 62.46694 | 66.13029 | 39306 ft | 488 kts | 87° |
| 2026-04-21 06:23 | 62.46877 | 66.27681 | 39306 ft | 488 kts | 86° |
| 2026-04-21 06:24 | 62.47073 | 66.42337 | 39305 ft | 488 kts | 86° |
| 2026-04-21 06:24 | 62.47214 | 66.56902 | 39312 ft | 487 kts | 87° |
| 2026-04-21 06:25 | 62.47318 | 66.71585 | 39240 ft | 487 kts | 87° |
| 2026-04-21 06:25 | 62.47399 | 66.86204 | 39310 ft | 487 kts | 87° |
| 2026-04-21 06:26 | 62.47467 | 67.00878 | 39314 ft | 489 kts | 87° |
| 2026-04-21 06:26 | 62.47521 | 67.15622 | 39305 ft | 491 kts | 88° |
| 2026-04-21 06:27 | 62.47560 | 67.30417 | 39320 ft | 493 kts | 88° |
| 2026-04-21 06:27 | 62.47584 | 67.45273 | 39344 ft | 494 kts | 88° |
| 2026-04-21 06:28 | 62.47591 | 67.60141 | 39327 ft | 495 kts | 88° |
| 2026-04-21 06:28 | 62.47583 | 67.75015 | 39325 ft | 495 kts | 88° |
| 2026-04-21 06:29 | 62.47559 | 67.89871 | 39315 ft | 493 kts | 88° |
| 2026-04-21 06:29 | 62.47519 | 68.04676 | 39314 ft | 492 kts | 88° |
| 2026-04-21 06:30 | 62.47464 | 68.19361 | 39323 ft | 491 kts | 88° |
| 2026-04-21 06:30 | 62.47394 | 68.34073 | 39334 ft | 490 kts | 88° |
| 2026-04-21 06:31 | 62.47308 | 68.48808 | 39327 ft | 489 kts | 89° |
| 2026-04-21 06:31 | 62.47207 | 68.63514 | 39318 ft | 489 kts | 89° |
| 2026-04-21 06:32 | 62.47090 | 68.78246 | 39320 ft | 490 kts | 89° |
| 2026-04-21 06:32 | 62.46958 | 68.92973 | 39322 ft | 490 kts | 89° |
| 2026-04-21 06:33 | 62.46810 | 69.07700 | 39319 ft | 490 kts | 89° |
| 2026-04-21 06:33 | 62.46646 | 69.22424 | 39320 ft | 490 kts | 89° |
| 2026-04-21 06:34 | 62.46470 | 69.37059 | 39328 ft | 492 kts | 89° |
| 2026-04-21 06:34 | 62.46281 | 69.51875 | 39321 ft | 494 kts | 89° |
| 2026-04-21 06:35 | 62.46071 | 69.66690 | 39315 ft | 493 kts | 89° |
| 2026-04-21 06:35 | 62.45844 | 69.81467 | 39342 ft | 492 kts | 89° |
| 2026-04-21 06:36 | 62.45600 | 69.96254 | 39329 ft | 491 kts | 90° |
| 2026-04-21 06:36 | 62.45342 | 70.11024 | 39323 ft | 492 kts | 90° |
| 2026-04-21 06:37 | 62.45067 | 70.25809 | 39325 ft | 492 kts | 90° |
| 2026-04-21 06:37 | 62.44777 | 70.40594 | 39326 ft | 493 kts | 90° |
| 2026-04-21 06:38 | 62.44471 | 70.55398 | 38976 ft | 499 kts | 90° |
| 2026-04-21 06:38 | 62.44366 | 70.60361 | 38579 ft | 500 kts | 90° |
| 2026-04-21 06:38 | 62.44201 | 70.67854 | 37910 ft | 498 kts | 90° |
| 2026-04-21 06:38 | 62.44034 | 70.75302 | 37261 ft | 497 kts | 90° |
| 2026-04-21 06:39 | 62.43862 | 70.82743 | 36619 ft | 496 kts | 90° |
| 2026-04-21 06:39 | 62.43687 | 70.90168 | 36047 ft | 494 kts | 90° |
| 2026-04-21 06:39 | 62.43510 | 70.97533 | 35545 ft | 490 kts | 90° |
| 2026-04-21 06:39 | 62.43329 | 71.04862 | 35073 ft | 487 kts | 90° |
| 2026-04-21 06:40 | 62.43147 | 71.12149 | 34571 ft | 485 kts | 90° |
| 2026-04-21 06:40 | 62.42962 | 71.19388 | 34033 ft | 483 kts | 90° |
| 2026-04-21 06:40 | 62.42773 | 71.26607 | 33500 ft | 479 kts | 90° |
| 2026-04-21 06:40 | 62.42582 | 71.33756 | 33008 ft | 476 kts | 90° |
| 2026-04-21 06:41 | 62.42389 | 71.40864 | 32580 ft | 472 kts | 90° |
| 2026-04-21 06:41 | 62.42193 | 71.47914 | 32092 ft | 469 kts | 90° |
| 2026-04-21 06:41 | 62.41995 | 71.54925 | 31606 ft | 466 kts | 90° |
| 2026-04-21 06:41 | 62.41800 | 71.61787 | 31150 ft | 463 kts | 90° |
| 2026-04-21 06:42 | 62.41599 | 71.68709 | 30684 ft | 460 kts | 90° |
| 2026-04-21 06:42 | 62.41512 | 71.75589 | 30164 ft | 455 kts | 82° |
| 2026-04-21 06:42 | 62.41947 | 71.82265 | 29652 ft | 445 kts | 72° |
| 2026-04-21 06:42 | 62.42822 | 71.88593 | 29314 ft | 430 kts | 62° |
| 2026-04-21 06:43 | 62.44052 | 71.94295 | 29292 ft | 410 kts | 56° |
| 2026-04-21 06:43 | 62.45357 | 71.99691 | 28851 ft | 406 kts | 55° |
| 2026-04-21 06:43 | 62.46693 | 72.05113 | 28004 ft | 413 kts | 55° |
| 2026-04-21 06:43 | 62.48045 | 72.10614 | 27392 ft | 413 kts | 56° |
| 2026-04-21 06:44 | 62.49371 | 72.16084 | 27084 ft | 407 kts | 56° |
| 2026-04-21 06:44 | 62.50663 | 72.21470 | 26733 ft | 401 kts | 56° |
| 2026-04-21 06:44 | 62.51920 | 72.26745 | 26342 ft | 396 kts | 56° |
| 2026-04-21 06:44 | 62.53173 | 72.32028 | 25904 ft | 393 kts | 56° |
| 2026-04-21 06:45 | 62.54418 | 72.37295 | 25426 ft | 392 kts | 56° |
| 2026-04-21 06:45 | 62.55652 | 72.42530 | 25010 ft | 388 kts | 56° |
| 2026-04-21 06:45 | 62.56882 | 72.47774 | 24770 ft | 381 kts | 56° |
| 2026-04-21 06:45 | 62.58057 | 72.52794 | 24518 ft | 376 kts | 56° |
| 2026-04-21 06:46 | 62.59233 | 72.57828 | 24272 ft | 374 kts | 56° |
| 2026-04-21 06:46 | 62.60433 | 72.62958 | 24037 ft | 378 kts | 56° |
| 2026-04-21 06:46 | 62.61610 | 72.68001 | 23796 ft | 380 kts | 57° |
| 2026-04-21 06:46 | 62.62793 | 72.73096 | 23468 ft | 375 kts | 57° |
| 2026-04-21 06:47 | 62.63957 | 72.78131 | 23132 ft | 371 kts | 56° |
| 2026-04-21 06:47 | 62.65107 | 72.83116 | 22684 ft | 367 kts | 56° |
| 2026-04-21 06:47 | 62.66248 | 72.88069 | 22219 ft | 365 kts | 57° |
| 2026-04-21 06:47 | 62.67380 | 72.92992 | 21785 ft | 362 kts | 57° |
| 2026-04-21 06:48 | 62.68498 | 72.97867 | 21369 ft | 358 kts | 57° |
| 2026-04-21 06:48 | 62.69604 | 73.02700 | 20959 ft | 355 kts | 57° |
| 2026-04-21 06:48 | 62.70699 | 73.07493 | 20553 ft | 352 kts | 57° |
| 2026-04-21 06:48 | 62.71781 | 73.12244 | 20154 ft | 349 kts | 57° |
| 2026-04-21 06:49 | 62.72854 | 73.16961 | 19761 ft | 346 kts | 57° |
| 2026-04-21 06:49 | 62.73911 | 73.21623 | 19468 ft | 339 kts | 57° |
| 2026-04-21 06:49 | 62.74939 | 73.26170 | 18947 ft | 331 kts | 57° |
| 2026-04-21 06:49 | 62.75960 | 73.30685 | 18183 ft | 331 kts | 58° |
| 2026-04-21 06:50 | 62.76960 | 73.35124 | 17768 ft | 321 kts | 58° |
| 2026-04-21 06:50 | 62.77931 | 73.39442 | 17404 ft | 318 kts | 58° |
| 2026-04-21 06:50 | 62.78900 | 73.43752 | 17091 ft | 314 kts | 58° |
| 2026-04-21 06:50 | 62.79858 | 73.48025 | 16704 ft | 312 kts | 58° |
| 2026-04-21 06:51 | 62.80809 | 73.52272 | 16368 ft | 309 kts | 59° |
| 2026-04-21 06:51 | 62.81751 | 73.56488 | 16017 ft | 306 kts | 59° |
| 2026-04-21 06:51 | 62.82679 | 73.60656 | 15672 ft | 304 kts | 59° |
| 2026-04-21 06:51 | 62.83601 | 73.64797 | 15332 ft | 301 kts | 59° |
| 2026-04-21 06:52 | 62.84513 | 73.68909 | 15008 ft | 299 kts | 59° |
| 2026-04-21 06:52 | 62.85417 | 73.72987 | 14665 ft | 297 kts | 59° |
| 2026-04-21 06:52 | 62.86314 | 73.77047 | 14335 ft | 295 kts | 60° |
| 2026-04-21 06:52 | 62.87205 | 73.81083 | 13994 ft | 292 kts | 60° |
| 2026-04-21 06:53 | 62.88062 | 73.84984 | 13674 ft | 285 kts | 60° |
| 2026-04-21 06:53 | 62.88928 | 73.88920 | 13348 ft | 288 kts | 60° |
| 2026-04-21 06:53 | 62.89804 | 73.92907 | 13023 ft | 293 kts | 60° |
| 2026-04-21 06:53 | 62.90699 | 73.96987 | 12689 ft | 299 kts | 61° |
| 2026-04-21 06:54 | 62.91598 | 74.01099 | 12348 ft | 301 kts | 61° |
| 2026-04-21 06:54 | 62.92497 | 74.05227 | 12004 ft | 294 kts | 62° |
| 2026-04-21 06:54 | 62.93361 | 74.09208 | 11687 ft | 287 kts | 62° |
| 2026-04-21 06:54 | 62.94216 | 74.13145 | 11371 ft | 284 kts | 62° |
| 2026-04-21 06:55 | 62.95061 | 74.17046 | 11047 ft | 282 kts | 62° |
| 2026-04-21 06:55 | 62.95900 | 74.20926 | 10721 ft | 280 kts | 62° |
| 2026-04-21 06:55 | 62.96726 | 74.24745 | 10590 ft | 271 kts | 62° |
| 2026-04-21 06:55 | 62.97533 | 74.28483 | 10215 ft | 272 kts | 63° |
| 2026-04-21 06:56 | 62.98329 | 74.32182 | 10009 ft | 262 kts | 63° |
| 2026-04-21 06:56 | 62.99107 | 74.35799 | 9705 ft | 260 kts | 63° |
| 2026-04-21 06:56 | 62.99909 | 74.39356 | 9450 ft | 259 kts | 60° |
| 2026-04-21 06:56 | 63.00777 | 74.42811 | 9166 ft | 257 kts | 59° |
| 2026-04-21 06:57 | 63.01658 | 74.46242 | 8895 ft | 258 kts | 58° |
| 2026-04-21 06:57 | 63.02546 | 74.49701 | 8628 ft | 261 kts | 59° |
| 2026-04-21 06:57 | 63.03437 | 74.53195 | 8359 ft | 260 kts | 59° |
| 2026-04-21 06:57 | 63.04290 | 74.56557 | 8245 ft | 240 kts | 59° |
| 2026-04-21 06:58 | 63.05070 | 74.59648 | 8075 ft | 222 kts | 59° |
| 2026-04-21 06:58 | 63.05787 | 74.62498 | 7942 ft | 203 kts | 59° |
| 2026-04-21 06:58 | 63.06446 | 74.65120 | 7793 ft | 189 kts | 58° |
| 2026-04-21 06:58 | 63.07079 | 74.67638 | 7532 ft | 186 kts | 58° |
| 2026-04-21 06:59 | 63.07701 | 74.70114 | 7312 ft | 183 kts | 59° |
| 2026-04-21 06:59 | 63.08309 | 74.72542 | 7105 ft | 183 kts | 58° |
| 2026-04-21 06:59 | 63.08926 | 74.75011 | 6909 ft | 184 kts | 59° |
| 2026-04-21 06:59 | 63.09548 | 74.77501 | 6714 ft | 186 kts | 59° |
| 2026-04-21 07:00 | 63.10173 | 74.80007 | 6488 ft | 184 kts | 59° |
| 2026-04-21 07:00 | 63.10748 | 74.82518 | 6208 ft | 184 kts | 71° |
| 2026-04-21 07:00 | 63.10617 | 74.85278 | 5894 ft | 186 kts | 117° |
| 2026-04-21 07:00 | 63.09979 | 74.87732 | 5617 ft | 184 kts | 117° |
| 2026-04-21 07:01 | 63.09367 | 74.90213 | 5335 ft | 184 kts | 116° |
| 2026-04-21 07:01 | 63.08779 | 74.92667 | 5155 ft | 176 kts | 115° |
| 2026-04-21 07:01 | 63.07730 | 74.97198 | 4827 ft | 160 kts | 114° |
| 2026-04-21 07:02 | 63.07233 | 74.99381 | 4595 ft | 159 kts | 114° |
| 2026-04-21 07:02 | 63.06741 | 75.01549 | 4325 ft | 157 kts | 114° |
| 2026-04-21 07:02 | 63.06256 | 75.03692 | 4003 ft | 156 kts | 114° |
| 2026-04-21 07:02 | 63.05773 | 75.05825 | 3707 ft | 155 kts | 114° |
| 2026-04-21 07:03 | 63.05293 | 75.07947 | 3392 ft | 154 kts | 113° |
| 2026-04-21 07:03 | 63.04944 | 75.10131 | 3073 ft | 148 kts | 86° |
| 2026-04-21 07:03 | 63.05199 | 75.12188 | 2844 ft | 139 kts | 59° |
| 2026-04-21 07:03 | 63.05785 | 75.13715 | 2636 ft | 127 kts | 32° |
| 2026-04-21 07:04 | 63.06557 | 75.14545 | 2479 ft | 122 kts | 26° |
| 2026-04-21 07:04 | 63.07313 | 75.15413 | 2354 ft | 124 kts | 26° |
| 2026-04-21 07:04 | 63.08088 | 75.16265 | 2208 ft | 125 kts | 25° |
| 2026-04-21 07:04 | 63.08867 | 75.17094 | 2055 ft | 124 kts | 24° |
| 2026-04-21 07:05 | 63.09646 | 75.17907 | 1917 ft | 123 kts | 24° |
| 2026-04-21 07:05 | 63.10427 | 75.18708 | 1838 ft | 125 kts | 23° |
| 2026-04-21 07:05 | 63.11214 | 75.19490 | 1815 ft | 123 kts | 23° |
| 2026-04-21 07:05 | 63.12000 | 75.20292 | 1692 ft | 124 kts | 24° |
| 2026-04-21 07:06 | 63.12786 | 75.21102 | 1514 ft | 124 kts | 24° |
| 2026-04-21 07:06 | 63.13564 | 75.21906 | 1337 ft | 123 kts | 24° |
| 2026-04-21 07:06 | 63.14343 | 75.22710 | 1160 ft | 124 kts | 24° |
| 2026-04-21 07:06 | 63.15123 | 75.23516 | 985 ft | 123 kts | 23° |
| 2026-04-21 07:07 | 63.15897 | 75.24315 | 809 ft | 122 kts | 23° |
| 2026-04-21 07:07 | 63.16675 | 75.25119 | 653 ft | 124 kts | 23° |
| 2026-04-21 07:07 | 63.17453 | 75.25922 | 492 ft | 120 kts | 22° |
| 2026-04-21 07:07 | 63.18104 | 75.26571 | 457 ft | 64 kts | 28° |
| 2026-04-21 07:08 | 63.18316 | 75.26819 | 458 ft | 18 kts | 44° |
| 2026-04-21 07:08 | 63.18317 | 75.27034 | 457 ft | 14 kts | 115° |
| 2026-04-21 07:08 | 63.18281 | 75.27204 | 454 ft | 5 kts | 112° |
| 2026-04-21 07:08 | 63.18295 | 75.27267 | 454 ft | 5 kts | 16° |
| 2026-04-21 07:09 | 63.18331 | 75.27290 | 454 ft | 5 kts | 23° |
| 2026-04-21 07:09 | 63.18348 | 75.27315 | 453 ft | 3 kts | 59° |
| 2026-04-21 07:09 | 63.18339 | 75.27340 | 454 ft | 2 kts | 170° |
| 2026-04-21 07:09 | 63.18324 | 75.27320 | 454 ft | 7 kts | 207° |
| 2026-04-21 07:10 | 63.18313 | 75.27308 | 454 ft | 0 kts | 206° |